Řízení letového provozu České republiky
Letiste: LKKV Aktualizace: 11.12.2019 05:05:25  UTC
 METAR LKKV 11.12. 05:00 ...
METAR LKKV 110500Z 13003KT CAVOK M04/M05 Q1016 RMK REG QNH 1014=
 TAF LKKV 11.12. 05:00 ...
TAF LKKV 110500Z 1106/1212 15004KT CAVOK      BECMG 1120/1122 9999 OVC012      TEMPO 1200/1205 VRB02KT      TEMPO 1122/1212 2500 -SN OVC005      BECMG 1205/1207 24004KT=